Time;durP1;ratioP1;P1;durP2;ratioP2;P2;SDS_P1;SDS_P2;PMS_P1;PMS_P2;Temp;Humidity;BMP_temperature;BMP_pressure;BME280_temperature;BME280_humidity;BME280_pressure;Samples;Min_cycle;Max_cycle;Signal;HPM_P1;HPM_P2
2023/01/07 00:01:28;;;;;;;10.20;6.90;;;;;;;6.63;61.77;97727.56;5028676;28;20593;-85
2023/01/07 00:04:07;;;;;;;7.80;5.17;;;;;;;6.56;61.32;97732.81;5034587;28;20641;-77
2023/01/07 00:06:40;;;;;;;11.40;6.63;;;;;;;6.51;61.71;97721.75;5033537;28;20220;-77
2023/01/07 00:09:17;;;;;;;9.77;6.70;;;;;;;5.94;63.46;97737.34;5047930;28;20573;-76
2023/01/07 00:11:48;;;;;;;12.57;7.40;;;;;;;5.82;64.69;97728.09;5051071;28;20299;-81
2023/01/07 00:14:15;;;;;;;10.80;6.73;;;;;;;5.70;64.77;97731.72;5032807;28;20231;-86
2023/01/07 00:16:42;;;;;;;9.67;6.00;;;;;;;5.85;65.13;97730.69;5052130;28;20229;-85
2023/01/07 00:19:13;;;;;;;8.27;6.00;;;;;;;6.08;64.23;97736.25;5032642;28;20195;-85
2023/01/07 00:21:43;;;;;;;10.87;5.20;;;;;;;5.95;63.91;97741.63;5049914;28;20261;-84
2023/01/07 00:24:16;;;;;;;11.00;6.60;;;;;;;5.57;65.40;97739.63;5049031;28;20598;-84
2023/01/07 00:26:45;;;;;;;11.07;5.53;;;;;;;5.29;65.40;97741.75;5031742;28;20201;-81
2023/01/07 00:29:15;;;;;;;10.93;5.93;;;;;;;5.11;66.61;97736.03;5033386;28;20219;-82
2023/01/07 00:32:03;;;;;;;7.87;5.43;;;;;;;5.15;65.80;97727.41;5020648;28;20203;-85
2023/01/07 00:35:22;;;;;;;6.40;4.27;;;;;;;4.92;65.63;97745.69;5049061;28;20629;-80
2023/01/07 00:37:52;;;;;;;5.43;4.13;;;;;;;4.57;67.00;97753.78;5020454;28;20195;-84
2023/01/07 00:40:36;;;;;;;8.10;4.47;;;;;;;4.26;68.00;97748.97;5029509;28;20201;-85
2023/01/07 00:43:18;;;;;;;6.53;4.33;;;;;;;3.85;69.00;97745.06;5048169;28;20226;-85
2023/01/07 00:46:03;;;;;;;7.43;5.23;;;;;;;3.80;69.74;97745.97;5034663;28;20194;-85
2023/01/07 00:48:44;;;;;;;10.13;7.47;;;;;;;4.01;69.97;97745.78;5033621;28;20627;-78
2023/01/07 00:51:28;;;;;;;7.63;4.67;;;;;;;3.92;70.65;97727.94;5031642;28;20225;-84
2023/01/07 00:53:59;;;;;;;6.47;4.37;;;;;;;4.00;71.30;97744.06;5049428;28;20229;-84
2023/01/07 00:56:29;;;;;;;6.43;4.70;;;;;;;3.96;70.55;97743.25;5048519;28;20186;-81
2023/01/07 00:58:59;;;;;;;6.83;5.30;;;;;;;4.00;70.72;97736.38;5032366;28;20287;-84
2023/01/07 01:01:29;;;;;;;9.13;5.03;;;;;;;4.09;70.60;97734.63;5031510;28;20268;-84
2023/01/07 01:04:01;;;;;;;7.60;5.30;;;;;;;4.00;70.52;97713.31;5049086;28;20272;-85
2023/01/07 01:06:44;;;;;;;11.20;5.07;;;;;;;4.22;70.30;97719.13;5017426;28;20705;-85
2023/01/07 01:09:35;;;;;;;6.53;4.27;;;;;;;4.31;70.16;97722.41;5063318;28;20313;-83
2023/01/07 01:12:16;;;;;;;7.87;4.40;;;;;;;4.57;69.94;97735.84;5051735;28;20193;-78
2023/01/07 01:14:52;;;;;;;7.50;4.80;;;;;;;4.62;69.27;97734.03;5052373;28;20226;-77
2023/01/07 01:17:22;;;;;;;6.17;4.33;;;;;;;4.62;69.54;97731.47;5070685;28;20185;-79
2023/01/07 01:19:51;;;;;;;8.00;5.20;;;;;;;4.75;68.98;97717.66;5050778;28;20200;-79
2023/01/07 01:22:25;;;;;;;8.17;5.20;;;;;;;5.01;68.34;97721.63;5047478;28;20232;-80
2023/01/07 01:25:14;;;;;;;7.80;5.43;;;;;;;5.15;67.49;97724.84;5069411;28;20190;-79
2023/01/07 01:27:55;;;;;;;6.20;4.50;;;;;;;5.23;66.70;97715.31;5065660;28;20509;-78
2023/01/07 01:30:39;;;;;;;7.63;4.27;;;;;;;5.26;67.11;97736.66;5066285;28;20195;-83
2023/01/07 01:33:24;;;;;;;9.93;5.83;;;;;;;5.37;65.54;97723.66;5048202;28;20189;-80
2023/01/07 01:36:12;;;;;;;6.57;4.97;;;;;;;5.25;66.19;97741.81;5048677;28;20293;-82
2023/01/07 01:38:59;;;;;;;5.77;4.40;;;;;;;5.16;66.10;97744.50;5061398;28;20258;-81
2023/01/07 01:41:34;;;;;;;10.07;6.00;;;;;;;5.01;66.22;97725.00;5066563;28;20195;-81
2023/01/07 01:44:43;;;;;;;12.70;7.10;;;;;;;4.89;66.10;97749.13;5058832;28;20254;-78
2023/01/07 01:47:21;;;;;;;10.83;6.10;;;;;;;4.67;66.72;97744.25;5061612;28;20196;-77
2023/01/07 01:50:12;;;;;;;9.27;6.50;;;;;;;4.27;67.69;97741.25;5053006;28;20203;-78
2023/01/07 01:53:05;;;;;;;9.07;5.90;;;;;;;4.31;68.59;97740.38;5044820;28;20217;-77
2023/01/07 01:56:00;;;;;;;8.17;5.67;;;;;;;4.25;68.80;97744.69;5049521;28;20191;-77
2023/01/07 01:59:09;;;;;;;8.57;5.50;;;;;;;4.27;68.07;97741.25;5045885;28;20247;-76
2023/01/07 02:01:56;;;;;;;14.93;7.23;;;;;;;4.25;67.67;97755.81;5017764;28;20227;-78
2023/01/07 02:05:05;;;;;;;8.97;5.87;;;;;;;3.94;68.45;97747.56;5049260;28;20669;-79
2023/01/07 02:07:57;;;;;;;5.30;4.07;;;;;;;3.85;68.67;97759.59;5047225;28;20222;-76
2023/01/07 02:10:42;;;;;;;7.57;5.40;;;;;;;3.83;69.14;97754.47;5019089;28;20211;-78
2023/01/07 02:13:35;;;;;;;7.73;4.80;;;;;;;3.95;68.95;97745.84;5033057;28;20186;-79
2023/01/07 02:16:40;;;;;;;7.73;4.90;;;;;;;4.02;68.54;97750.91;5047889;28;20226;-81
2023/01/07 02:20:06;;;;;;;8.23;5.43;;;;;;;4.06;68.57;97755.13;5047443;28;20186;-76
2023/01/07 02:23:07;;;;;;;10.07;5.73;;;;;;;4.10;68.78;97748.28;5046375;28;20258;-75
2023/01/07 02:26:05;;;;;;;7.37;5.27;;;;;;;4.25;68.49;97750.69;5048210;28;20216;-75
2023/01/07 02:28:36;;;;;;;7.23;5.27;;;;;;;4.45;67.37;97748.75;5047488;28;20186;-82
2023/01/07 02:31:52;;;;;;;8.97;5.17;;;;;;;4.46;66.96;97740.22;5048435;28;20592;-83
2023/01/07 02:34:53;;;;;;;10.50;6.77;;;;;;;4.69;66.23;97745.09;5046652;28;20198;-74
2023/01/07 02:37:39;;;;;;;14.40;8.33;;;;;;;4.60;66.55;97740.91;5045599;28;20186;-79
2023/01/07 02:40:07;;;;;;;12.07;7.43;;;;;;;4.46;66.78;97745.34;5046881;28;20290;-76
2023/01/07 02:43:08;;;;;;;12.43;6.60;;;;;;;4.24;67.00;97741.31;5046290;28;20317;-77
2023/01/07 02:46:05;;;;;;;22.03;9.33;;;;;;;3.29;68.56;97645.66;5045094;28;20269;-80
2023/01/07 02:48:43;;;;;;;13.67;6.67;;;;;;;3.51;68.85;97742.75;5046661;28;20197;-77
2023/01/07 02:51:37;;;;;;;7.93;4.50;;;;;;;2.78;71.22;97747.44;5031964;28;20190;-78
2023/01/07 02:54:14;;;;;;;7.17;4.47;;;;;;;2.49;73.33;97755.22;5044995;28;20227;-77
2023/01/07 02:57:16;;;;;;;6.73;4.30;;;;;;;2.23;73.94;97739.09;5045583;28;20214;-75
2023/01/07 02:59:56;;;;;;;6.87;5.23;;;;;;;2.22;75.16;97745.06;5045454;28;20193;-76
2023/01/07 03:03:20;;;;;;;7.80;5.33;;;;;;;2.13;75.91;97751.03;5046173;28;20226;-79
2023/01/07 03:06:38;;;;;;;8.23;5.67;;;;;;;2.21;74.73;97753.56;5047522;28;20263;-77
2023/01/07 03:09:53;;;;;;;7.53;3.90;;;;;;;2.14;75.49;97751.88;5046658;28;20202;-80
2023/01/07 03:13:33;;;;;;;9.97;4.73;;;;;;;2.11;76.00;97759.53;5047485;28;20200;-80
2023/01/07 03:16:37;;;;;;;9.63;5.63;;;;;;;1.96;75.56;97736.59;5027140;28;20244;-81
2023/01/07 03:19:47;;;;;;;9.97;5.97;;;;;;;1.98;75.56;97745.09;5046233;28;20192;-77
2023/01/07 03:22:33;;;;;;;10.80;5.87;;;;;;;1.90;76.13;97749.34;5046047;28;20260;-77
2023/01/07 03:25:27;;;;;;;8.10;5.07;;;;;;;1.92;75.78;97755.28;5044881;28;20239;-80
2023/01/07 03:28:29;;;;;;;9.30;5.93;;;;;;;1.89;77.27;97765.53;5034429;28;20190;-82
2023/01/07 03:31:15;;;;;;;9.13;5.47;;;;;;;2.05;76.49;97764.66;5000825;28;20284;-81
2023/01/07 03:34:03;;;;;;;6.80;4.97;;;;;;;2.09;76.21;97764.66;5044206;28;20209;-78
2023/01/07 03:36:54;;;;;;;8.87;4.40;;;;;;;2.03;76.58;97751.91;5051259;28;20263;-80
2023/01/07 03:39:47;;;;;;;7.13;4.77;;;;;;;2.16;76.33;97765.50;5053387;28;20212;-78
2023/01/07 03:42:49;;;;;;;7.70;4.40;;;;;;;2.34;76.65;97761.22;5051373;28;20315;-77
2023/01/07 03:45:36;;;;;;;8.60;4.30;;;;;;;2.26;76.01;97759.53;5034109;28;20676;-83
2023/01/07 03:48:42;;;;;;;5.80;4.23;;;;;;;2.24;76.69;97763.78;5054006;28;20186;-78
2023/01/07 03:51:42;;;;;;;7.70;4.13;;;;;;;2.43;76.73;97760.34;5037918;28;20209;-75
2023/01/07 03:54:32;;;;;;;6.00;4.00;;;;;;;2.38;76.19;97759.50;5038270;28;20209;-75
2023/01/07 03:57:21;;;;;;;4.90;3.40;;;;;;;2.43;76.21;97761.19;5049237;28;20339;-76
2023/01/07 04:00:08;;;;;;;5.43;4.10;;;;;;;2.53;76.56;97761.16;5037282;28;20328;-77
2023/01/07 04:03:16;;;;;;;7.10;4.20;;;;;;;2.61;76.41;97762.00;5052221;28;20213;-79
2023/01/07 04:05:56;;;;;;;8.00;4.00;;;;;;;2.37;75.93;97709.25;5053741;28;20308;-82
2023/01/07 04:08:46;;;;;;;5.50;3.90;;;;;;;2.70;75.38;97760.25;5049769;28;20198;-77
2023/01/07 04:11:27;;;;;;;10.53;4.47;;;;;;;2.81;75.80;97760.22;5036372;28;20190;-79
2023/01/07 04:14:27;;;;;;;7.77;3.93;;;;;;;2.99;74.90;97755.88;5049781;28;20283;-80
2023/01/07 04:17:16;;;;;;;6.53;4.03;;;;;;;2.92;74.51;97761.03;5034551;28;20244;-77
2023/01/07 04:20:07;;;;;;;8.50;4.43;;;;;;;2.76;74.47;97742.31;5018374;28;20681;-76
2023/01/07 04:22:38;;;;;;;6.40;4.23;;;;;;;2.51;73.90;97691.31;5032571;28;20229;-78
2023/01/07 04:25:22;;;;;;;7.03;4.47;;;;;;;2.89;74.38;97768.69;5030224;28;20217;-84
2023/01/07 04:28:13;;;;;;;7.00;4.77;;;;;;;2.92;74.72;97756.78;5033663;28;20628;-84
2023/01/07 04:31:02;;;;;;;9.03;4.73;;;;;;;3.09;74.16;97772.88;5001203;28;20601;-85
2023/01/07 04:34:09;;;;;;;9.47;5.30;;;;;;;3.22;72.91;97768.53;5031044;28;20209;-78
2023/01/07 04:36:55;;;;;;;8.00;5.20;;;;;;;3.26;72.42;97768.53;5016913;28;20696;-80
2023/01/07 04:39:39;;;;;;;7.47;5.23;;;;;;;3.35;72.59;97761.66;5033666;28;20280;-85
2023/01/07 04:42:22;;;;;;;9.60;5.50;;;;;;;3.35;72.32;97774.44;5016557;28;20625;-81
2023/01/07 04:45:07;;;;;;;16.43;7.97;;;;;;;3.53;71.05;97782.00;5031899;28;20273;-80
2023/01/07 04:47:37;;;;;;;12.83;8.90;;;;;;;3.52;70.23;97776.06;5029320;28;20301;-77
2023/01/07 04:50:21;;;;;;;13.47;8.47;;;;;;;3.17;70.06;97786.47;5028151;28;20190;-81
2023/01/07 04:53:10;;;;;;;12.23;8.03;;;;;;;2.70;72.36;97793.47;5029401;28;20201;-81
2023/01/07 04:55:52;;;;;;;9.40;6.53;;;;;;;2.31;73.03;97765.47;4998317;28;20260;-77
2023/01/07 04:58:35;;;;;;;6.47;5.00;;;;;;;2.19;74.69;97789.34;5011699;28;20194;-76
2023/01/07 05:01:19;;;;;;;8.20;5.57;;;;;;;1.97;75.71;97786.81;5028502;28;20186;-83
2023/01/07 05:04:09;;;;;;;6.97;4.53;;;;;;;1.79;75.89;97774.03;5027357;28;20237;-79
2023/01/07 05:07:40;;;;;;;11.10;6.27;;;;;;;1.91;76.29;97797.88;5028703;28;20649;-81
2023/01/07 05:10:10;;;;;;;10.77;6.50;;;;;;;2.07;75.73;97788.50;5030323;28;20260;-80
2023/01/07 05:12:52;;;;;;;9.47;6.00;;;;;;;2.05;75.63;97790.19;4998158;28;20289;-85
2023/01/07 05:15:20;;;;;;;9.30;5.77;;;;;;;2.06;75.54;97781.69;5028677;28;20233;-82
2023/01/07 05:17:50;;;;;;;10.07;5.40;;;;;;;1.89;76.05;97794.47;5027096;28;20197;-82
2023/01/07 05:20:19;;;;;;;10.20;5.60;;;;;;;1.62;76.74;97780.00;5028253;28;20700;-80
2023/01/07 05:23:05;;;;;;;6.90;5.00;;;;;;;1.84;77.16;97792.75;5028998;28;20245;-84
2023/01/07 05:25:53;;;;;;;8.37;5.27;;;;;;;1.83;76.27;97775.75;5013713;28;20258;-82
2023/01/07 05:28:37;;;;;;;7.47;4.63;;;;;;;2.00;75.88;97795.31;5028400;28;20300;-79
2023/01/07 05:31:11;;;;;;;8.83;5.27;;;;;;;2.06;75.49;97799.59;5027738;28;20199;-86
2023/01/07 05:33:53;;;;;;;7.57;5.30;;;;;;;2.01;75.94;97791.91;5045640;28;20190;-77
2023/01/07 05:36:35;;;;;;;10.10;5.93;;;;;;;2.21;74.03;97794.44;5030061;28;20217;-80
2023/01/07 05:39:04;;;;;;;12.73;7.03;;;;;;;2.26;73.79;97802.97;5026684;28;20210;-78
2023/01/07 05:41:33;;;;;;;12.57;7.40;;;;;;;2.18;74.34;97794.47;5030060;28;20219;-79
2023/01/07 05:44:12;;;;;;;12.70;7.00;;;;;;;2.40;73.54;97801.22;5033733;28;20269;-83
2023/01/07 05:46:40;;;;;;;9.47;6.20;;;;;;;2.48;73.66;97799.50;5027542;28;20218;-84
2023/01/07 05:49:22;;;;;;;9.97;6.87;;;;;;;2.39;74.46;97814.88;5027275;28;20187;-83
2023/01/07 05:51:51;;;;;;;11.67;7.00;;;;;;;2.23;74.25;97798.69;5026399;28;20199;-84
2023/01/07 05:54:30;;;;;;;9.60;6.40;;;;;;;2.29;75.15;97808.06;5031209;28;20239;-80
2023/01/07 05:57:16;;;;;;;10.10;6.03;;;;;;;2.19;76.05;97803.81;5045181;28;20216;-83
2023/01/07 06:00:00;;;;;;;11.27;5.47;;;;;;;2.18;75.66;97814.91;5040561;28;20272;-84
2023/01/07 06:02:44;;;;;;;12.70;5.13;;;;;;;1.96;75.79;97800.44;5037368;28;20248;-82
2023/01/07 06:05:28;;;;;;;8.23;5.70;;;;;;;2.03;75.93;97815.75;5045866;28;20194;-85
2023/01/07 06:08:10;;;;;;;11.13;6.23;;;;;;;2.11;76.26;97818.28;5046337;28;20725;-82
2023/01/07 06:10:55;;;;;;;9.97;5.93;;;;;;;2.09;76.20;97820.00;5033089;28;20269;-84
2023/01/07 06:13:34;;;;;;;6.90;5.40;;;;;;;2.04;77.39;97808.94;5015753;28;20730;-83
2023/01/07 06:16:09;;;;;;;7.73;5.47;;;;;;;1.88;77.49;97774.88;5030837;28;20236;-84
2023/01/07 06:18:51;;;;;;;10.57;6.30;;;;;;;2.18;77.41;97820.88;5032230;28;20181;-86
2023/01/07 06:21:35;;;;;;;9.70;5.50;;;;;;;2.09;77.08;97820.00;5042732;28;20198;-86
2023/01/07 06:24:20;;;;;;;6.77;5.17;;;;;;;1.95;77.63;97835.34;5032538;28;20225;-84
2023/01/07 06:27:11;;;;;;;10.63;5.80;;;;;;;2.01;77.34;97832.78;5033713;28;20209;-88
2023/01/07 06:29:55;;;;;;;7.27;5.07;;;;;;;2.19;76.56;97822.56;5033188;28;20267;-88
2023/01/07 06:32:43;;;;;;;7.33;5.40;;;;;;;2.31;76.24;97830.19;5038728;28;20211;-88
2023/01/07 06:35:24;;;;;;;8.10;5.00;;;;;;;2.26;75.84;97825.97;5035896;28;20197;-88
2023/01/07 06:38:12;;;;;;;7.73;4.50;;;;;;;2.24;74.98;97832.78;5025562;28;20299;-87
2023/01/07 06:41:01;;;;;;;6.60;5.00;;;;;;;2.30;75.38;97845.53;5031651;28;20187;-87
2023/01/07 06:44:18;;;;;;;8.57;5.33;;;;;;;2.26;75.74;97834.47;5027736;28;20712;-87
2023/01/07 06:47:05;;;;;;;8.10;6.07;;;;;;;2.47;75.52;97833.59;5037620;28;20684;-85
2023/01/07 06:49:55;;;;;;;7.43;5.77;;;;;;;2.59;74.87;97835.28;5048759;28;20685;-81
2023/01/07 06:53:08;;;;;;;7.80;5.13;;;;;;;2.72;73.60;97824.19;5033464;28;20203;-77
2023/01/07 06:56:39;;;;;;;13.03;5.53;;;;;;;2.83;73.66;97842.88;5020505;28;20276;-86
2023/01/07 06:59:27;;;;;;;9.60;5.70;;;;;;;2.87;73.09;97844.56;5018830;28;20280;-86
2023/01/07 07:02:20;;;;;;;7.37;5.27;;;;;;;2.91;73.13;97831.78;5016172;28;20207;-85
2023/01/07 07:04:56;;;;;;;9.17;6.50;;;;;;;3.08;72.50;97850.50;5018250;28;20209;-85
2023/01/07 07:07:40;;;;;;;13.87;8.53;;;;;;;2.98;71.93;97815.56;5011134;28;20190;-85
2023/01/07 07:10:44;;;;;;;18.87;10.07;;;;;;;3.14;72.22;97835.13;5021789;28;20700;-84
2023/01/07 07:13:29;;;;;;;13.83;8.77;;;;;;;3.04;72.46;97805.31;5023691;28;20189;-81
2023/01/07 07:16:21;;;;;;;12.23;7.40;;;;;;;3.30;71.39;97815.41;5018837;28;20376;-87
2023/01/07 07:19:08;;;;;;;14.40;7.30;;;;;;;3.55;71.26;97831.50;5034593;28;20206;-83
2023/01/07 07:22:06;;;;;;;12.07;7.17;;;;;;;3.73;70.99;97833.97;5018833;28;20283;-79
2023/01/07 07:24:51;;;;;;;9.77;7.10;;;;;;;3.68;71.62;97839.13;5021608;28;20724;-84
2023/01/07 07:27:39;;;;;;;10.37;5.97;;;;;;;3.43;70.96;97803.41;5034751;28;20689;-76
2023/01/07 07:30:29;;;;;;;11.77;7.87;;;;;;;3.72;71.48;97824.56;5033955;28;20194;-83
2023/01/07 07:33:17;;;;;;;12.03;7.33;;;;;;;3.86;71.22;97830.44;5028679;28;20260;-77
2023/01/07 07:35:59;;;;;;;11.53;8.57;;;;;;;3.87;70.40;97829.59;5034979;28;20261;-85
2023/01/07 07:38:51;;;;;;;10.30;6.33;;;;;;;4.25;70.20;97822.47;5022760;28;20252;-77
2023/01/07 07:41:49;;;;;;;9.77;6.13;;;;;;;4.31;69.20;97822.41;5034820;28;20277;-82
2023/01/07 07:44:33;;;;;;;14.17;7.33;;;;;;;4.36;68.67;97828.34;5036971;28;20827;-78
2023/01/07 07:47:32;;;;;;;12.57;8.27;;;;;;;4.48;68.60;97820.53;5036362;28;20196;-78
2023/01/07 07:50:15;;;;;;;15.77;8.67;;;;;;;4.54;68.37;97810.22;5032402;28;20641;-78
2023/01/07 07:53:26;;;;;;;15.40;8.93;;;;;;;4.76;68.13;97816.81;5028673;28;20202;-79
2023/01/07 07:56:15;;;;;;;15.93;10.40;;;;;;;4.93;67.45;97830.34;5035109;28;20277;-79
2023/01/07 07:58:50;;;;;;;15.63;9.93;;;;;;;5.02;67.64;97825.97;5031741;28;20215;-78
2023/01/07 08:01:57;;;;;;;14.67;10.37;;;;;;;4.87;68.10;97809.00;5033268;28;20202;-77
2023/01/07 08:04:40;;;;;;;31.93;15.80;;;;;;;4.95;68.00;97784.13;5036321;28;20315;-78
2023/01/07 08:07:25;;;;;;;14.97;8.83;;;;;;;5.00;67.69;97796.91;5017233;28;20199;-88
2023/01/07 08:10:31;;;;;;;10.73;7.67;;;;;;;5.06;68.36;97830.19;5034145;28;20210;-76
2023/01/07 08:12:59;;;;;;;21.00;14.33;;;;;;;5.07;68.86;97813.94;5036518;28;20632;-74
2023/01/07 08:15:26;;;;;;;17.30;11.13;;;;;;;5.33;67.61;97819.59;5033657;28;20322;-75
2023/01/07 08:17:57;;;;;;;16.37;11.17;;;;;;;5.29;68.08;97805.97;5036175;28;20194;-75
2023/01/07 08:20:25;;;;;;;13.80;9.47;;;;;;;5.59;67.86;97807.25;5032550;28;20203;-80
2023/01/07 08:22:52;;;;;;;13.03;7.50;;;;;;;5.60;67.56;97824.38;5030591;28;20223;-75
2023/01/07 08:25:20;;;;;;;9.27;7.63;;;;;;;5.68;67.24;97822.53;5019971;28;20188;-77
2023/01/07 08:27:47;;;;;;;11.03;7.37;;;;;;;5.66;67.58;97822.56;5047895;28;20636;-76
2023/01/07 08:30:15;;;;;;;10.73;7.70;;;;;;;5.61;67.57;97818.34;5048111;28;20287;-77
2023/01/07 08:32:46;;;;;;;12.43;8.33;;;;;;;5.69;68.67;97804.53;5048408;28;20197;-77
2023/01/07 08:35:14;;;;;;;13.10;9.03;;;;;;;5.96;67.54;97812.72;5032765;28;20307;-78
2023/01/07 08:37:43;;;;;;;16.10;9.90;;;;;;;5.94;67.60;97794.75;5049929;28;20646;-78
2023/01/07 08:40:12;;;;;;;17.27;9.93;;;;;;;6.03;66.87;97780.91;5046774;28;20252;-78
2023/01/07 08:42:39;;;;;;;10.07;6.47;;;;;;;6.31;67.39;97806.16;5035518;28;20215;-76
2023/01/07 08:45:12;;;;;;;9.07;5.13;;;;;;;6.29;67.39;97813.03;5045798;28;20273;-75
2023/01/07 08:47:39;;;;;;;7.70;5.60;;;;;;;6.48;66.59;97811.88;5050130;28;20626;-76
2023/01/07 08:50:07;;;;;;;8.93;6.07;;;;;;;6.57;66.70;97810.88;5046811;28;20184;-76
2023/01/07 08:52:34;;;;;;;6.70;6.00;;;;;;;6.75;66.86;97807.09;5048498;28;20190;-74
2023/01/07 08:55:02;;;;;;;7.53;5.47;;;;;;;6.85;66.19;97798.31;5047373;28;20211;-74
2023/01/07 08:57:30;;;;;;;6.60;5.30;;;;;;;6.98;65.04;97799.78;5047963;28;20220;-76
2023/01/07 08:59:59;;;;;;;11.17;7.53;;;;;;;7.20;65.25;97801.06;5032080;28;20722;-76
2023/01/07 09:02:30;;;;;;;11.90;5.73;;;;;;;7.38;64.34;97782.63;5014506;28;20212;-77
2023/01/07 09:04:57;;;;;;;10.03;5.80;;;;;;;7.45;64.10;97773.91;5031520;28;20316;-77
2023/01/07 09:07:24;;;;;;;10.40;6.53;;;;;;;7.65;64.04;97768.28;5047805;28;20676;-74
2023/01/07 09:09:51;;;;;;;15.13;9.33;;;;;;;7.97;62.55;97796.78;5049054;28;20774;-74
2023/01/07 09:12:18;;;;;;;17.63;11.33;;;;;;;8.01;63.29;97783.78;5047028;28;20265;-78
2023/01/07 09:14:46;;;;;;;17.50;10.97;;;;;;;8.10;62.41;97783.56;5048434;28;20247;-74
2023/01/07 09:17:13;;;;;;;14.40;10.07;;;;;;;8.19;62.26;97780.75;5049313;28;20193;-76
2023/01/07 09:19:40;;;;;;;18.83;12.03;;;;;;;8.26;62.43;97765.16;5037925;28;20191;-74
2023/01/07 09:22:08;;;;;;;17.00;11.63;;;;;;;8.41;61.93;97757.84;5011482;28;20309;-74
2023/01/07 09:24:35;;;;;;;14.50;8.67;;;;;;;8.54;61.25;97759.25;5029779;28;20214;-74
2023/01/07 09:27:02;;;;;;;10.37;6.80;;;;;;;8.65;61.79;97738.31;5049359;28;20222;-78
2023/01/07 09:29:29;;;;;;;9.03;5.27;;;;;;;8.87;61.25;97747.16;5046841;28;20198;-77
2023/01/07 09:31:57;;;;;;;7.40;5.10;;;;;;;8.91;60.60;97741.03;5039946;28;20909;-78
2023/01/07 09:34:27;;;;;;;7.17;5.50;;;;;;;9.11;59.78;97743.88;5048252;28;20190;-76
2023/01/07 09:36:59;;;;;;;9.50;5.20;;;;;;;9.14;60.13;97735.19;5037597;28;20256;-77
2023/01/07 09:39:27;;;;;;;9.33;5.10;;;;;;;9.21;59.60;97734.13;5028235;28;20576;-72
2023/01/07 09:41:59;;;;;;;7.83;5.17;;;;;;;9.39;59.16;97728.41;5025696;28;20697;-73
2023/01/07 09:44:55;;;;;;;9.40;5.53;;;;;;;9.39;58.83;97724.09;5027634;28;20233;-78
2023/01/07 09:47:25;;;;;;;7.40;5.17;;;;;;;9.53;58.83;97727.13;5030367;28;20341;-73
2023/01/07 09:49:59;;;;;;;6.83;5.13;;;;;;;9.56;58.29;97718.41;5025768;28;20256;-74
2023/01/07 09:52:35;;;;;;;8.57;5.70;;;;;;;9.72;58.12;97710.13;5027093;28;20190;-72
2023/01/07 09:55:21;;;;;;;7.63;5.10;;;;;;;9.79;58.09;97706.44;5026574;28;20195;-74
2023/01/07 09:57:50;;;;;;;8.30;5.30;;;;;;;9.88;57.68;97694.09;5031851;28;20874;-75
2023/01/07 10:00:21;;;;;;;11.03;5.83;;;;;;;10.05;57.42;97700.44;5047680;28;20197;-75
2023/01/07 10:03:14;;;;;;;9.37;5.47;;;;;;;9.96;57.29;97695.56;5046988;28;20285;-74
2023/01/07 10:06:05;;;;;;;9.23;5.30;;;;;;;10.17;56.72;97691.44;5030197;28;20204;-74
2023/01/07 10:08:53;;;;;;;6.40;5.30;;;;;;;10.02;56.51;97671.22;5045307;28;20210;-76
2023/01/07 10:11:51;;;;;;;7.77;5.10;;;;;;;10.13;56.01;97676.91;5045783;28;20194;-74
2023/01/07 10:14:33;;;;;;;10.80;5.73;;;;;;;9.99;56.26;97666.16;5034935;28;20201;-76
2023/01/07 10:17:13;;;;;;;6.27;4.03;;;;;;;10.14;55.96;97660.50;5046636;28;20635;-78
2023/01/07 10:19:55;;;;;;;6.60;4.57;;;;;;;10.23;55.79;97655.00;5046800;28;20193;-74
2023/01/07 10:22:55;;;;;;;10.20;6.40;;;;;;;10.38;55.15;97654.47;5046226;28;20229;-79
2023/01/07 10:25:32;;;;;;;6.77;5.03;;;;;;;10.47;54.63;97649.81;5038082;28;20257;-77
2023/01/07 10:28:13;;;;;;;9.40;4.77;;;;;;;10.49;54.60;97654.91;5029611;28;20208;-77
2023/01/07 10:30:45;;;;;;;8.83;4.80;;;;;;;10.40;54.57;97644.91;5046979;28;20198;-78
2023/01/07 10:33:24;;;;;;;4.67;3.80;;;;;;;10.64;53.50;97644.03;5046186;28;20183;-78
2023/01/07 10:36:16;;;;;;;7.70;4.17;;;;;;;10.57;53.14;97635.63;5046139;28;20189;-77
2023/01/07 10:39:07;;;;;;;7.67;4.67;;;;;;;10.75;53.14;97633.25;5046202;28;20196;-78
2023/01/07 10:41:54;;;;;;;7.77;4.40;;;;;;;10.75;53.33;97622.91;5046580;28;20238;-78
2023/01/07 10:44:50;;;;;;;7.63;4.00;;;;;;;10.75;53.35;97622.91;5016863;28;20237;-77
2023/01/07 10:47:32;;;;;;;4.40;2.90;;;;;;;10.41;52.61;97568.91;5027918;28;20216;-74
2023/01/07 10:50:06;;;;;;;3.70;2.97;;;;;;;10.75;52.37;97612.53;5045309;28;20378;-76
2023/01/07 10:52:46;;;;;;;6.57;3.90;;;;;;;10.95;52.16;97616.06;5029227;28;20635;-76
2023/01/07 10:55:24;;;;;;;9.27;4.13;;;;;;;10.89;51.96;97605.94;5027875;28;20209;-74
2023/01/07 10:57:52;;;;;;;5.90;4.17;;;;;;;11.01;51.22;97591.66;5047471;28;20200;-74
2023/01/07 11:00:23;;;;;;;7.67;3.00;;;;;;;11.20;50.82;97593.50;5045282;28;20211;-75
2023/01/07 11:02:54;;;;;;;5.87;3.43;;;;;;;11.34;50.46;97598.97;5046439;28;20249;-74
2023/01/07 11:05:25;;;;;;;4.57;3.43;;;;;;;11.40;50.64;97598.72;5046629;28;20233;-74
2023/01/07 11:07:57;;;;;;;8.37;4.37;;;;;;;11.39;50.81;97591.03;5045750;28;20565;-74
2023/01/07 11:10:29;;;;;;;9.43;5.23;;;;;;;11.49;50.02;97581.97;5044960;28;20822;-74
2023/01/07 11:13:24;;;;;;;4.37;3.07;;;;;;;11.53;49.71;97591.28;5044361;28;20771;-75
2023/01/07 11:15:59;;;;;;;6.20;3.87;;;;;;;11.64;49.88;97588.28;5027960;28;20810;-73
2023/01/07 11:18:39;;;;;;;7.10;3.80;;;;;;;11.67;48.95;97589.00;5045461;28;20201;-75
2023/01/07 11:21:06;;;;;;;3.83;2.80;;;;;;;11.30;49.23;97561.09;5043425;28;20186;-75
2023/01/07 11:23:55;;;;;;;4.07;2.83;;;;;;;11.59;48.30;97580.66;5045550;28;20300;-77
2023/01/07 11:26:30;;;;;;;4.97;3.13;;;;;;;11.48;47.69;97579.44;5043992;28;20271;-73
2023/01/07 11:29:24;;;;;;;4.83;2.77;;;;;;;11.44;47.54;97568.31;5044919;28;20217;-74
2023/01/07 11:31:57;;;;;;;7.40;3.60;;;;;;;11.33;47.62;97553.19;5046974;28;20623;-76
2023/01/07 11:34:36;;;;;;;6.77;4.00;;;;;;;11.58;47.39;97560.00;5043530;28;20624;-77
2023/01/07 11:37:04;;;;;;;5.37;4.10;;;;;;;11.66;47.60;97545.84;5045604;28;20212;-75
2023/01/07 11:39:34;;;;;;;7.20;2.27;;;;;;;11.86;46.86;97550.16;5044617;28;20210;-74
2023/01/07 11:42:39;;;;;;;3.53;2.50;;;;;;;11.84;47.06;97551.97;5012195;28;20341;-77
2023/01/07 11:45:29;;;;;;;2.83;2.50;;;;;;;11.91;46.82;97546.44;5046508;28;20320;-73
2023/01/07 11:47:59;;;;;;;3.47;2.50;;;;;;;11.83;46.42;97542.53;5045448;28;20195;-74
2023/01/07 11:50:37;;;;;;;3.70;2.40;;;;;;;11.78;46.39;97547.06;5046800;28;20241;-74
2023/01/07 11:53:10;;;;;;;4.37;2.20;;;;;;;11.73;46.65;97533.41;5046360;28;20645;-76
2023/01/07 11:55:39;;;;;;;4.90;2.83;;;;;;;11.83;46.66;97537.34;5045095;28;20183;-72
2023/01/07 11:58:18;;;;;;;3.63;2.40;;;;;;;11.84;46.22;97539.00;5049316;28;20746;-74
2023/01/07 12:01:20;;;;;;;4.63;2.50;;;;;;;11.86;46.88;97527.66;5049222;28;20626;-76
2023/01/07 12:03:51;;;;;;;4.03;2.60;;;;;;;11.78;46.60;97498.59;5048374;28;20233;-74
2023/01/07 12:06:30;;;;;;;6.17;3.17;;;;;;;12.06;47.49;97522.44;5049052;28;20191;-78
2023/01/07 12:09:30;;;;;;;5.53;3.27;;;;;;;11.60;48.47;97525.31;5049157;28;20303;-77
2023/01/07 12:12:32;;;;;;;4.37;3.00;;;;;;;11.75;47.79;97516.03;5049061;28;20202;-77
2023/01/07 12:15:17;;;;;;;5.40;2.57;;;;;;;11.79;46.77;97512.41;5049334;28;20264;-78
2023/01/07 12:17:48;;;;;;;4.33;2.40;;;;;;;11.91;47.03;97502.34;5047727;28;20188;-76
2023/01/07 12:20:48;;;;;;;6.20;4.23;;;;;;;12.07;46.96;97510.31;5050092;28;20188;-77
2023/01/07 12:23:34;;;;;;;8.30;4.63;;;;;;;12.04;47.20;97489.66;5050152;28;20187;-78
2023/01/07 12:26:26;;;;;;;6.13;3.27;;;;;;;11.95;47.54;97511.66;5048559;28;20646;-77
2023/01/07 12:28:59;;;;;;;4.60;2.90;;;;;;;12.13;46.61;97510.88;5050567;28;20235;-77
2023/01/07 12:31:47;;;;;;;8.50;4.40;;;;;;;12.21;47.20;97510.53;5049047;28;20188;-78
2023/01/07 12:34:39;;;;;;;6.30;3.80;;;;;;;12.13;46.76;97494.47;5048204;28;20222;-77
2023/01/07 12:37:21;;;;;;;6.47;2.97;;;;;;;12.11;47.00;97510.13;5050340;28;20672;-79
2023/01/07 12:39:55;;;;;;;4.63;3.40;;;;;;;12.05;47.10;97501.75;5047045;28;20294;-77
2023/01/07 12:42:30;;;;;;;5.90;3.40;;;;;;;12.14;46.54;97503.91;5031985;28;20257;-79
2023/01/07 12:45:04;;;;;;;2.47;2.20;;;;;;;12.08;46.69;97501.59;5050058;28;20309;-79
2023/01/07 12:47:38;;;;;;;4.93;3.43;;;;;;;12.03;46.88;97506.16;5048342;28;20188;-74
2023/01/07 12:50:19;;;;;;;6.77;2.87;;;;;;;12.06;47.35;97503.41;5032003;28;20198;-80
2023/01/07 12:53:02;;;;;;;5.03;3.50;;;;;;;12.02;47.26;97502.72;5046715;28;20681;-77